Bridgeport, CT (06673)

2:55 PM EDT on September 23, 2014 (GMT -0400)
Brewer Stratford Marina | Change Station
CLOSE
Current Station
Personal Weather Station
Location: Stratford, CT
Elevation: 20 ft
Nearby Weather Stations

Elev 20 ft 41.18 °N, 73.13 °W | Updated 8 seconds ago

Clear
Clear
65.0 °F
Feels Like 65.0 °F
N
0.0
Wind Variable Wind from SW
Gusts 0.0 mph

Today
High -- | Low -- °F
--% Chance of Precip.
Yesterday
High -- | Low -- °F
Precip. -- in
6:41 AM 6:48 PM
Waning Crescent, 0% visible
Pressure 30.32 in
Visibility 10.0 miles
Clouds Clear
Dew Point 46 °F
Humidity 51%
Rainfall 0.00 in
Snow Depth Not available.
UV 7 out of 12
Pollen 2.90 out of 12
Ozone Good
PM2.5 Good
Flu Activity Not available.
METAR KBDR 231752Z 23008KT 10SM CLR 19/09 A3032 RMK AO2 SLP266 T01890089 10189 20117 53001

More Conditions Fewer Conditions

Pressure 30.32 in
Visibility 10.0 miles
Clouds Clear
Dew Point 46 °F
Humidity 51%
Rainfall 0.00 in
Snow Depth Not available.
UV 7 out of 12
Pollen 2.90 out of 12
Ozone Good
PM2.5 Good
Flu Activity Not available.
METAR KBDR 231752Z 23008KT 10SM CLR 19/09 A3032 RMK AO2 SLP266 T01890089 10189 20117 53001

More Conditions Fewer Conditions

10-Day Weather Forecast

Almanac

Astronomy

Sep. 23, 2014 Rise Set
Actual Time 6:41 AM EDT 6:48 PM EDT
Civil Twilight 6:13 AM EDT 7:15 PM EDT
Nautical Twilight 5:41 AM EDT 7:47 PM EDT
Astronomical Twilight 5:08 AM EDT 8:20 PM EDT
Moon 6:02 AM EDT 6:25 PM EDT
Length of Visible Light 13h 02m
Length of Day
12h 07m
Tomorrow will be 2m 44s shorter.
Waning Crescent, 0% of the Moon is Illuminated
Today
Waning Crescent
Sep 24
New
Oct 1
First Quarter
Oct 8
Full
Oct 15
Last Quarter

Today's Extremes

State Highs State Lows

Community

WunderPhotos

Upload Photos

1,755,775 photos uploaded!

Nearby

Air Quality

  Air Quality AQ Index Pollutant
Yesterday Good
OZONE
Yesterday Good
PM2.5
Current Good
PM2.5
Current Good
OZONE
Tuesday Good
PM2.5
Tuesday Good
OZONE

Snow Depth

Station Depth Elevation
No new snow has been reported.

Earthquake Activity

City Distance Mag. Time & Date
No recent earthquake activity has been reported nearby.
Minimum magnitude displayed is 2.5.

Coastal Water Temperatures

Place Temperature
Kings Point, NY 68.0 °F
Bridgeport, CT 69.1 °F

Nearby Weather Stations